Terminal Aerodrome Forecast
Issued by NWS Corpus Christi, TX

Home | Current Version | Previous Version | Text Only | Print | Product List | Glossary On
Versions: 1 2 3 4 5 6 7 8 9 10 11 12 13 14 15 16 17
530
FTUS44 KCRP 132342
TAFVCT
TAF
KVCT 132342Z 1400/1424 13014KT P6SM SCT035
     FM140200 14006KT P6SM BKN014
     FM140400 13005KT 2SM BR BKN008
      TEMPO 1405/1409 3/4SM BR BKN004
     FM140900 13004KT 2SM BR OVC013
     FM141500 16013KT P6SM SCT025 BKN035
     FM141700 17018G25KT P6SM BKN045 BKN250=

USA.gov is the U.S. government's official web portal to all federal, state and local government web resources and services.